sensor_id;sensor_type;location;lat;lon;timestamp;P1;durP1;ratioP1;P2;durP2;ratioP2
19643;SDS011;9970;-36.854;174.870;2022-08-21T00:02:14;3.33;;;3.33;;
19643;SDS011;9970;-36.854;174.870;2022-08-21T00:04:55;3.60;;;3.60;;
19643;SDS011;9970;-36.854;174.870;2022-08-21T00:07:27;3.80;;;3.80;;
19643;SDS011;9970;-36.854;174.870;2022-08-21T00:10:01;3.60;;;3.60;;
19643;SDS011;9970;-36.854;174.870;2022-08-21T00:12:38;3.70;;;3.70;;
19643;SDS011;9970;-36.854;174.870;2022-08-21T00:15:13;3.60;;;3.60;;
19643;SDS011;9970;-36.854;174.870;2022-08-21T00:17:47;3.50;;;3.50;;
19643;SDS011;9970;-36.854;174.870;2022-08-21T00:20:23;3.70;;;3.70;;
19643;SDS011;9970;-36.854;174.870;2022-08-21T00:22:56;3.00;;;3.00;;
19643;SDS011;9970;-36.854;174.870;2022-08-21T00:25:29;2.93;;;2.93;;
19643;SDS011;9970;-36.854;174.870;2022-08-21T00:28:03;2.90;;;2.90;;
19643;SDS011;9970;-36.854;174.870;2022-08-21T00:30:37;3.10;;;3.10;;
19643;SDS011;9970;-36.854;174.870;2022-08-21T00:33:10;3.00;;;3.00;;
19643;SDS011;9970;-36.854;174.870;2022-08-21T00:35:43;2.87;;;2.87;;
19643;SDS011;9970;-36.854;174.870;2022-08-21T00:38:16;3.20;;;3.20;;
19643;SDS011;9970;-36.854;174.870;2022-08-21T00:40:55;3.20;;;3.20;;
19643;SDS011;9970;-36.854;174.870;2022-08-21T00:43:31;3.30;;;3.30;;
19643;SDS011;9970;-36.854;174.870;2022-08-21T00:46:05;3.30;;;3.30;;
19643;SDS011;9970;-36.854;174.870;2022-08-21T00:48:38;3.20;;;3.20;;
19643;SDS011;9970;-36.854;174.870;2022-08-21T00:51:17;3.40;;;3.40;;
19643;SDS011;9970;-36.854;174.870;2022-08-21T00:53:57;3.27;;;3.27;;
19643;SDS011;9970;-36.854;174.870;2022-08-21T00:56:32;3.20;;;3.20;;
19643;SDS011;9970;-36.854;174.870;2022-08-21T00:59:07;3.50;;;3.50;;
19643;SDS011;9970;-36.854;174.870;2022-08-21T01:01:40;3.43;;;3.43;;
19643;SDS011;9970;-36.854;174.870;2022-08-21T01:04:13;3.40;;;3.40;;
19643;SDS011;9970;-36.854;174.870;2022-08-21T01:06:47;3.70;;;3.70;;
19643;SDS011;9970;-36.854;174.870;2022-08-21T01:09:21;3.47;;;3.47;;
19643;SDS011;9970;-36.854;174.870;2022-08-21T01:11:55;3.40;;;3.40;;
19643;SDS011;9970;-36.854;174.870;2022-08-21T01:14:28;3.70;;;3.70;;
19643;SDS011;9970;-36.854;174.870;2022-08-21T01:17:02;3.80;;;3.80;;
19643;SDS011;9970;-36.854;174.870;2022-08-21T01:19:41;3.70;;;3.70;;
19643;SDS011;9970;-36.854;174.870;2022-08-21T01:22:14;4.00;;;4.00;;
19643;SDS011;9970;-36.854;174.870;2022-08-21T01:24:47;3.90;;;3.90;;
19643;SDS011;9970;-36.854;174.870;2022-08-21T01:27:20;4.00;;;4.00;;
19643;SDS011;9970;-36.854;174.870;2022-08-21T01:29:58;3.90;;;3.90;;
19643;SDS011;9970;-36.854;174.870;2022-08-21T01:32:38;3.80;;;3.80;;
19643;SDS011;9970;-36.854;174.870;2022-08-21T01:35:11;3.90;;;3.90;;
19643;SDS011;9970;-36.854;174.870;2022-08-21T01:37:46;4.13;;;4.13;;
19643;SDS011;9970;-36.854;174.870;2022-08-21T01:40:19;3.80;;;3.80;;
19643;SDS011;9970;-36.854;174.870;2022-08-21T01:42:52;4.17;;;4.17;;
19643;SDS011;9970;-36.854;174.870;2022-08-21T01:45:25;3.90;;;3.90;;
19643;SDS011;9970;-36.854;174.870;2022-08-21T01:47:58;3.60;;;3.60;;
19643;SDS011;9970;-36.854;174.870;2022-08-21T01:50:32;3.70;;;3.70;;
19643;SDS011;9970;-36.854;174.870;2022-08-21T01:53:05;3.70;;;3.70;;
19643;SDS011;9970;-36.854;174.870;2022-08-21T01:55:39;3.50;;;3.50;;
19643;SDS011;9970;-36.854;174.870;2022-08-21T01:58:12;3.50;;;3.50;;
19643;SDS011;9970;-36.854;174.870;2022-08-21T02:00:45;3.43;;;3.43;;
19643;SDS011;9970;-36.854;174.870;2022-08-21T02:03:19;3.07;;;3.07;;
19643;SDS011;9970;-36.854;174.870;2022-08-21T02:05:52;3.30;;;3.30;;
19643;SDS011;9970;-36.854;174.870;2022-08-21T02:08:26;3.50;;;3.50;;
19643;SDS011;9970;-36.854;174.870;2022-08-21T02:11:00;3.30;;;3.30;;
19643;SDS011;9970;-36.854;174.870;2022-08-21T02:13:33;3.10;;;3.10;;
19643;SDS011;9970;-36.854;174.870;2022-08-21T02:16:06;3.10;;;3.10;;
19643;SDS011;9970;-36.854;174.870;2022-08-21T02:18:40;3.40;;;3.40;;
19643;SDS011;9970;-36.854;174.870;2022-08-21T02:21:13;3.30;;;3.30;;
19643;SDS011;9970;-36.854;174.870;2022-08-21T02:23:46;3.50;;;3.50;;
19643;SDS011;9970;-36.854;174.870;2022-08-21T02:26:19;3.30;;;3.30;;
19643;SDS011;9970;-36.854;174.870;2022-08-21T02:28:52;3.30;;;3.30;;
19643;SDS011;9970;-36.854;174.870;2022-08-21T02:31:24;3.70;;;3.70;;
19643;SDS011;9970;-36.854;174.870;2022-08-21T02:33:58;3.63;;;3.63;;
19643;SDS011;9970;-36.854;174.870;2022-08-21T02:36:31;3.50;;;3.50;;
19643;SDS011;9970;-36.854;174.870;2022-08-21T02:39:05;3.30;;;3.30;;
19643;SDS011;9970;-36.854;174.870;2022-08-21T02:41:40;3.33;;;3.33;;
19643;SDS011;9970;-36.854;174.870;2022-08-21T02:44:13;3.40;;;3.40;;
19643;SDS011;9970;-36.854;174.870;2022-08-21T02:46:46;3.30;;;3.30;;
19643;SDS011;9970;-36.854;174.870;2022-08-21T02:49:20;3.30;;;3.30;;
19643;SDS011;9970;-36.854;174.870;2022-08-21T02:51:53;3.50;;;3.50;;
19643;SDS011;9970;-36.854;174.870;2022-08-21T02:54:26;3.63;;;3.63;;
19643;SDS011;9970;-36.854;174.870;2022-08-21T02:57:00;3.00;;;3.00;;
19643;SDS011;9970;-36.854;174.870;2022-08-21T02:59:32;3.00;;;3.00;;
19643;SDS011;9970;-36.854;174.870;2022-08-21T03:02:05;3.10;;;3.10;;
19643;SDS011;9970;-36.854;174.870;2022-08-21T03:04:38;3.00;;;3.00;;
19643;SDS011;9970;-36.854;174.870;2022-08-21T03:07:13;3.20;;;3.20;;
19643;SDS011;9970;-36.854;174.870;2022-08-21T03:09:50;3.10;;;3.10;;
19643;SDS011;9970;-36.854;174.870;2022-08-21T03:12:23;3.00;;;3.00;;
19643;SDS011;9970;-36.854;174.870;2022-08-21T03:14:56;3.00;;;3.00;;
19643;SDS011;9970;-36.854;174.870;2022-08-21T03:17:29;3.30;;;3.30;;
19643;SDS011;9970;-36.854;174.870;2022-08-21T03:20:07;3.03;;;3.03;;
19643;SDS011;9970;-36.854;174.870;2022-08-21T03:22:38;3.30;;;3.30;;
19643;SDS011;9970;-36.854;174.870;2022-08-21T03:25:12;3.20;;;3.20;;
19643;SDS011;9970;-36.854;174.870;2022-08-21T03:27:46;3.60;;;3.60;;
19643;SDS011;9970;-36.854;174.870;2022-08-21T03:30:20;3.27;;;3.27;;
19643;SDS011;9970;-36.854;174.870;2022-08-21T03:32:53;3.20;;;3.20;;
19643;SDS011;9970;-36.854;174.870;2022-08-21T03:35:27;3.50;;;3.50;;
19643;SDS011;9970;-36.854;174.870;2022-08-21T03:38:00;3.57;;;3.57;;
19643;SDS011;9970;-36.854;174.870;2022-08-21T03:40:38;3.30;;;3.30;;
19643;SDS011;9970;-36.854;174.870;2022-08-21T03:43:11;3.20;;;3.20;;
19643;SDS011;9970;-36.854;174.870;2022-08-21T03:45:45;3.20;;;3.20;;
19643;SDS011;9970;-36.854;174.870;2022-08-21T03:48:19;3.23;;;3.23;;
19643;SDS011;9970;-36.854;174.870;2022-08-21T03:50:52;3.20;;;3.20;;
19643;SDS011;9970;-36.854;174.870;2022-08-21T03:53:26;3.40;;;3.40;;
19643;SDS011;9970;-36.854;174.870;2022-08-21T03:55:59;3.20;;;3.20;;
19643;SDS011;9970;-36.854;174.870;2022-08-21T03:58:37;3.17;;;3.17;;
19643;SDS011;9970;-36.854;174.870;2022-08-21T04:01:15;3.30;;;3.30;;
19643;SDS011;9970;-36.854;174.870;2022-08-21T04:03:48;3.00;;;3.00;;
19643;SDS011;9970;-36.854;174.870;2022-08-21T04:06:21;3.00;;;3.00;;
19643;SDS011;9970;-36.854;174.870;2022-08-21T04:08:59;3.10;;;3.10;;
19643;SDS011;9970;-36.854;174.870;2022-08-21T04:11:32;3.00;;;3.00;;
19643;SDS011;9970;-36.854;174.870;2022-08-21T04:14:08;2.90;;;2.90;;
19643;SDS011;9970;-36.854;174.870;2022-08-21T04:16:41;3.00;;;3.00;;
19643;SDS011;9970;-36.854;174.870;2022-08-21T04:19:14;2.93;;;2.93;;
19643;SDS011;9970;-36.854;174.870;2022-08-21T04:21:47;2.90;;;2.90;;
19643;SDS011;9970;-36.854;174.870;2022-08-21T04:24:21;3.10;;;3.10;;
19643;SDS011;9970;-36.854;174.870;2022-08-21T04:26:56;3.10;;;3.10;;
19643;SDS011;9970;-36.854;174.870;2022-08-21T04:29:29;2.90;;;2.90;;
19643;SDS011;9970;-36.854;174.870;2022-08-21T04:32:03;2.90;;;2.90;;
19643;SDS011;9970;-36.854;174.870;2022-08-21T04:34:36;3.00;;;3.00;;
19643;SDS011;9970;-36.854;174.870;2022-08-21T04:37:09;3.20;;;3.20;;
19643;SDS011;9970;-36.854;174.870;2022-08-21T04:39:42;3.40;;;3.40;;
19643;SDS011;9970;-36.854;174.870;2022-08-21T04:42:16;3.30;;;3.30;;
19643;SDS011;9970;-36.854;174.870;2022-08-21T04:44:49;3.20;;;3.20;;
19643;SDS011;9970;-36.854;174.870;2022-08-21T04:47:22;3.20;;;3.20;;
19643;SDS011;9970;-36.854;174.870;2022-08-21T04:49:57;3.10;;;3.10;;
19643;SDS011;9970;-36.854;174.870;2022-08-21T04:52:30;2.80;;;2.80;;
19643;SDS011;9970;-36.854;174.870;2022-08-21T04:55:08;2.67;;;2.67;;
19643;SDS011;9970;-36.854;174.870;2022-08-21T04:57:41;2.60;;;2.60;;
19643;SDS011;9970;-36.854;174.870;2022-08-21T05:00:16;2.60;;;2.60;;
19643;SDS011;9970;-36.854;174.870;2022-08-21T05:02:49;2.80;;;2.80;;
19643;SDS011;9970;-36.854;174.870;2022-08-21T05:05:23;2.60;;;2.60;;
19643;SDS011;9970;-36.854;174.870;2022-08-21T05:08:02;2.80;;;2.80;;
19643;SDS011;9970;-36.854;174.870;2022-08-21T05:10:37;2.60;;;2.60;;
19643;SDS011;9970;-36.854;174.870;2022-08-21T05:13:14;2.50;;;2.50;;
19643;SDS011;9970;-36.854;174.870;2022-08-21T05:15:47;2.50;;;2.50;;
19643;SDS011;9970;-36.854;174.870;2022-08-21T05:18:24;2.60;;;2.60;;
19643;SDS011;9970;-36.854;174.870;2022-08-21T05:20:57;2.40;;;2.40;;
19643;SDS011;9970;-36.854;174.870;2022-08-21T05:23:30;2.60;;;2.60;;
19643;SDS011;9970;-36.854;174.870;2022-08-21T05:26:03;2.50;;;2.50;;
19643;SDS011;9970;-36.854;174.870;2022-08-21T05:28:38;2.40;;;2.40;;
19643;SDS011;9970;-36.854;174.870;2022-08-21T05:31:11;2.40;;;2.40;;
19643;SDS011;9970;-36.854;174.870;2022-08-21T05:33:44;2.40;;;2.40;;
19643;SDS011;9970;-36.854;174.870;2022-08-21T05:36:20;2.40;;;2.40;;
19643;SDS011;9970;-36.854;174.870;2022-08-21T05:38:53;2.27;;;2.27;;
19643;SDS011;9970;-36.854;174.870;2022-08-21T05:41:29;2.40;;;2.40;;
19643;SDS011;9970;-36.854;174.870;2022-08-21T05:44:02;2.30;;;2.30;;
19643;SDS011;9970;-36.854;174.870;2022-08-21T05:46:36;2.30;;;2.30;;
19643;SDS011;9970;-36.854;174.870;2022-08-21T05:49:10;2.10;;;2.10;;
19643;SDS011;9970;-36.854;174.870;2022-08-21T05:51:43;2.30;;;2.30;;
19643;SDS011;9970;-36.854;174.870;2022-08-21T05:54:16;2.30;;;2.30;;
19643;SDS011;9970;-36.854;174.870;2022-08-21T05:56:53;2.30;;;2.30;;
19643;SDS011;9970;-36.854;174.870;2022-08-21T05:59:27;2.30;;;2.30;;
19643;SDS011;9970;-36.854;174.870;2022-08-21T06:02:00;2.20;;;2.20;;
19643;SDS011;9970;-36.854;174.870;2022-08-21T06:04:37;2.20;;;2.20;;
19643;SDS011;9970;-36.854;174.870;2022-08-21T06:07:10;2.30;;;2.30;;
19643;SDS011;9970;-36.854;174.870;2022-08-21T06:09:43;2.40;;;2.40;;
19643;SDS011;9970;-36.854;174.870;2022-08-21T06:12:16;2.60;;;2.60;;
19643;SDS011;9970;-36.854;174.870;2022-08-21T06:14:49;2.50;;;2.50;;
19643;SDS011;9970;-36.854;174.870;2022-08-21T06:17:22;2.40;;;2.40;;
19643;SDS011;9970;-36.854;174.870;2022-08-21T06:19:55;2.10;;;2.10;;
19643;SDS011;9970;-36.854;174.870;2022-08-21T06:22:31;2.00;;;2.00;;
19643;SDS011;9970;-36.854;174.870;2022-08-21T06:25:04;2.10;;;2.10;;
19643;SDS011;9970;-36.854;174.870;2022-08-21T06:27:38;1.90;;;1.90;;
19643;SDS011;9970;-36.854;174.870;2022-08-21T06:30:11;1.90;;;1.90;;
19643;SDS011;9970;-36.854;174.870;2022-08-21T06:32:44;2.00;;;2.00;;
19643;SDS011;9970;-36.854;174.870;2022-08-21T06:35:17;2.00;;;2.00;;
19643;SDS011;9970;-36.854;174.870;2022-08-21T06:37:50;2.10;;;2.10;;
19643;SDS011;9970;-36.854;174.870;2022-08-21T06:40:24;2.30;;;2.30;;
19643;SDS011;9970;-36.854;174.870;2022-08-21T06:43:04;2.30;;;2.30;;
19643;SDS011;9970;-36.854;174.870;2022-08-21T06:45:41;2.30;;;2.30;;
19643;SDS011;9970;-36.854;174.870;2022-08-21T06:48:14;2.20;;;2.20;;
19643;SDS011;9970;-36.854;174.870;2022-08-21T06:50:47;2.30;;;2.30;;
19643;SDS011;9970;-36.854;174.870;2022-08-21T06:53:20;2.00;;;2.00;;
19643;SDS011;9970;-36.854;174.870;2022-08-21T06:55:53;2.03;;;2.03;;
19643;SDS011;9970;-36.854;174.870;2022-08-21T06:58:26;2.30;;;2.30;;
19643;SDS011;9970;-36.854;174.870;2022-08-21T07:00:59;2.20;;;2.20;;
19643;SDS011;9970;-36.854;174.870;2022-08-21T07:03:34;2.30;;;2.30;;
19643;SDS011;9970;-36.854;174.870;2022-08-21T07:06:08;2.10;;;2.10;;
19643;SDS011;9970;-36.854;174.870;2022-08-21T07:08:41;2.00;;;2.00;;
19643;SDS011;9970;-36.854;174.870;2022-08-21T07:11:22;2.00;;;2.00;;
19643;SDS011;9970;-36.854;174.870;2022-08-21T07:13:50;2.10;;;2.10;;
19643;SDS011;9970;-36.854;174.870;2022-08-21T07:16:25;2.00;;;2.00;;
19643;SDS011;9970;-36.854;174.870;2022-08-21T07:18:58;1.90;;;1.90;;
19643;SDS011;9970;-36.854;174.870;2022-08-21T07:21:31;2.00;;;2.00;;
19643;SDS011;9970;-36.854;174.870;2022-08-21T07:24:09;1.80;;;1.80;;
19643;SDS011;9970;-36.854;174.870;2022-08-21T07:26:43;2.00;;;2.00;;
19643;SDS011;9970;-36.854;174.870;2022-08-21T07:29:16;2.10;;;2.10;;
19643;SDS011;9970;-36.854;174.870;2022-08-21T07:31:48;1.90;;;1.90;;
19643;SDS011;9970;-36.854;174.870;2022-08-21T07:34:21;1.87;;;1.87;;
19643;SDS011;9970;-36.854;174.870;2022-08-21T07:36:54;1.90;;;1.90;;
19643;SDS011;9970;-36.854;174.870;2022-08-21T07:39:29;1.80;;;1.80;;
19643;SDS011;9970;-36.854;174.870;2022-08-21T07:42:02;2.00;;;2.00;;
19643;SDS011;9970;-36.854;174.870;2022-08-21T07:44:35;2.00;;;2.00;;
19643;SDS011;9970;-36.854;174.870;2022-08-21T07:47:08;1.90;;;1.90;;
19643;SDS011;9970;-36.854;174.870;2022-08-21T07:49:41;2.10;;;2.10;;
19643;SDS011;9970;-36.854;174.870;2022-08-21T07:52:15;1.90;;;1.90;;
19643;SDS011;9970;-36.854;174.870;2022-08-21T07:54:47;1.90;;;1.90;;
19643;SDS011;9970;-36.854;174.870;2022-08-21T07:57:20;1.90;;;1.90;;
19643;SDS011;9970;-36.854;174.870;2022-08-21T07:59:54;1.80;;;1.80;;
19643;SDS011;9970;-36.854;174.870;2022-08-21T08:02:32;1.87;;;1.87;;
19643;SDS011;9970;-36.854;174.870;2022-08-21T08:05:05;1.90;;;1.90;;
19643;SDS011;9970;-36.854;174.870;2022-08-21T08:07:39;1.87;;;1.87;;
19643;SDS011;9970;-36.854;174.870;2022-08-21T08:10:13;2.10;;;2.10;;
19643;SDS011;9970;-36.854;174.870;2022-08-21T08:12:46;1.80;;;1.80;;
19643;SDS011;9970;-36.854;174.870;2022-08-21T08:15:26;1.90;;;1.90;;
19643;SDS011;9970;-36.854;174.870;2022-08-21T08:18:00;1.90;;;1.90;;
19643;SDS011;9970;-36.854;174.870;2022-08-21T08:20:33;1.77;;;1.77;;
19643;SDS011;9970;-36.854;174.870;2022-08-21T08:23:06;1.80;;;1.80;;
19643;SDS011;9970;-36.854;174.870;2022-08-21T08:25:40;1.90;;;1.90;;
19643;SDS011;9970;-36.854;174.870;2022-08-21T08:28:14;1.80;;;1.80;;
19643;SDS011;9970;-36.854;174.870;2022-08-21T08:30:47;1.83;;;1.83;;
19643;SDS011;9970;-36.854;174.870;2022-08-21T08:33:19;1.80;;;1.80;;
19643;SDS011;9970;-36.854;174.870;2022-08-21T08:35:52;1.80;;;1.80;;
19643;SDS011;9970;-36.854;174.870;2022-08-21T08:38:27;2.00;;;2.00;;
19643;SDS011;9970;-36.854;174.870;2022-08-21T08:43:42;2.10;;;2.10;;
19643;SDS011;9970;-36.854;174.870;2022-08-21T08:46:18;1.90;;;1.90;;
19643;SDS011;9970;-36.854;174.870;2022-08-21T08:51:46;1.90;;;1.90;;
19643;SDS011;9970;-36.854;174.870;2022-08-21T08:54:42;2.00;;;2.00;;
19643;SDS011;9970;-36.854;174.870;2022-08-21T08:57:20;2.00;;;2.00;;
19643;SDS011;9970;-36.854;174.870;2022-08-21T08:59:49;2.00;;;2.00;;
19643;SDS011;9970;-36.854;174.870;2022-08-21T09:02:24;2.00;;;2.00;;
19643;SDS011;9970;-36.854;174.870;2022-08-21T09:05:00;2.03;;;2.03;;
19643;SDS011;9970;-36.854;174.870;2022-08-21T09:10:29;2.00;;;2.00;;
19643;SDS011;9970;-36.854;174.870;2022-08-21T09:18:44;2.10;;;2.10;;
19643;SDS011;9970;-36.854;174.870;2022-08-21T09:21:26;2.20;;;2.20;;
19643;SDS011;9970;-36.854;174.870;2022-08-21T09:26:53;2.00;;;2.00;;
19643;SDS011;9970;-36.854;174.870;2022-08-21T09:29:24;2.00;;;2.00;;
19643;SDS011;9970;-36.854;174.870;2022-08-21T09:31:59;2.20;;;2.20;;
19643;SDS011;9970;-36.854;174.870;2022-08-21T09:34:32;2.03;;;2.03;;
19643;SDS011;9970;-36.854;174.870;2022-08-21T09:37:05;2.10;;;2.10;;
19643;SDS011;9970;-36.854;174.870;2022-08-21T09:39:40;1.90;;;1.90;;
19643;SDS011;9970;-36.854;174.870;2022-08-21T09:42:21;1.90;;;1.90;;
19643;SDS011;9970;-36.854;174.870;2022-08-21T09:45:07;2.00;;;2.00;;
19643;SDS011;9970;-36.854;174.870;2022-08-21T09:47:48;2.00;;;2.00;;
19643;SDS011;9970;-36.854;174.870;2022-08-21T09:50:23;2.00;;;2.00;;
19643;SDS011;9970;-36.854;174.870;2022-08-21T09:52:57;2.00;;;2.00;;
19643;SDS011;9970;-36.854;174.870;2022-08-21T09:58:49;1.87;;;1.87;;
19643;SDS011;9970;-36.854;174.870;2022-08-21T10:01:24;1.80;;;1.80;;
19643;SDS011;9970;-36.854;174.870;2022-08-21T10:04:05;1.90;;;1.90;;
19643;SDS011;9970;-36.854;174.870;2022-08-21T10:06:41;1.90;;;1.90;;
19643;SDS011;9970;-36.854;174.870;2022-08-21T10:09:20;1.87;;;1.87;;
19643;SDS011;9970;-36.854;174.870;2022-08-21T10:12:06;1.90;;;1.90;;
19643;SDS011;9970;-36.854;174.870;2022-08-21T10:20:20;1.80;;;1.80;;
19643;SDS011;9970;-36.854;174.870;2022-08-21T10:22:58;1.90;;;1.90;;
19643;SDS011;9970;-36.854;174.870;2022-08-21T10:31:12;1.80;;;1.80;;
19643;SDS011;9970;-36.854;174.870;2022-08-21T10:36:51;1.80;;;1.80;;
19643;SDS011;9970;-36.854;174.870;2022-08-21T10:42:02;1.70;;;1.70;;
19643;SDS011;9970;-36.854;174.870;2022-08-21T10:44:34;1.80;;;1.80;;
19643;SDS011;9970;-36.854;174.870;2022-08-21T10:49:55;1.80;;;1.80;;
19643;SDS011;9970;-36.854;174.870;2022-08-21T10:55:10;1.90;;;1.90;;
19643;SDS011;9970;-36.854;174.870;2022-08-21T10:57:47;1.80;;;1.80;;
19643;SDS011;9970;-36.854;174.870;2022-08-21T11:00:21;1.80;;;1.80;;
19643;SDS011;9970;-36.854;174.870;2022-08-21T11:03:07;1.70;;;1.70;;
19643;SDS011;9970;-36.854;174.870;2022-08-21T11:05:52;2.00;;;2.00;;
19643;SDS011;9970;-36.854;174.870;2022-08-21T11:11:14;1.90;;;1.90;;
19643;SDS011;9970;-36.854;174.870;2022-08-21T11:14:04;1.90;;;1.90;;
19643;SDS011;9970;-36.854;174.870;2022-08-21T11:16:40;2.00;;;2.00;;
19643;SDS011;9970;-36.854;174.870;2022-08-21T11:25:00;1.80;;;1.80;;
19643;SDS011;9970;-36.854;174.870;2022-08-21T11:30:22;2.00;;;2.00;;
19643;SDS011;9970;-36.854;174.870;2022-08-21T11:33:06;1.90;;;1.90;;
19643;SDS011;9970;-36.854;174.870;2022-08-21T11:35:47;2.00;;;2.00;;
19643;SDS011;9970;-36.854;174.870;2022-08-21T11:38:26;1.90;;;1.90;;
19643;SDS011;9970;-36.854;174.870;2022-08-21T11:41:05;2.00;;;2.00;;
19643;SDS011;9970;-36.854;174.870;2022-08-21T11:49:41;2.10;;;2.10;;
19643;SDS011;9970;-36.854;174.870;2022-08-21T11:55:32;2.03;;;2.03;;
19643;SDS011;9970;-36.854;174.870;2022-08-21T11:58:08;1.90;;;1.90;;
19643;SDS011;9970;-36.854;174.870;2022-08-21T12:00:53;2.20;;;2.20;;
19643;SDS011;9970;-36.854;174.870;2022-08-21T12:03:26;1.90;;;1.90;;
19643;SDS011;9970;-36.854;174.870;2022-08-21T12:06:11;2.00;;;2.00;;
19643;SDS011;9970;-36.854;174.870;2022-08-21T12:08:44;2.10;;;2.10;;
19643;SDS011;9970;-36.854;174.870;2022-08-21T12:16:45;2.00;;;2.00;;
19643;SDS011;9970;-36.854;174.870;2022-08-21T12:22:06;2.10;;;2.10;;
19643;SDS011;9970;-36.854;174.870;2022-08-21T12:24:45;2.00;;;2.00;;
19643;SDS011;9970;-36.854;174.870;2022-08-21T12:27:39;1.93;;;1.93;;
19643;SDS011;9970;-36.854;174.870;2022-08-21T12:33:03;1.70;;;1.70;;
19643;SDS011;9970;-36.854;174.870;2022-08-21T12:36:01;1.80;;;1.80;;
19643;SDS011;9970;-36.854;174.870;2022-08-21T12:38:47;2.00;;;2.00;;
19643;SDS011;9970;-36.854;174.870;2022-08-21T12:41:43;1.90;;;1.90;;
19643;SDS011;9970;-36.854;174.870;2022-08-21T12:44:42;1.90;;;1.90;;
19643;SDS011;9970;-36.854;174.870;2022-08-21T12:47:25;1.83;;;1.83;;
19643;SDS011;9970;-36.854;174.870;2022-08-21T12:50:08;1.80;;;1.80;;
19643;SDS011;9970;-36.854;174.870;2022-08-21T12:55:24;1.97;;;1.97;;
19643;SDS011;9970;-36.854;174.870;2022-08-21T12:57:52;1.80;;;1.80;;
19643;SDS011;9970;-36.854;174.870;2022-08-21T13:00:26;1.70;;;1.70;;
19643;SDS011;9970;-36.854;174.870;2022-08-21T13:03:00;1.83;;;1.83;;
19643;SDS011;9970;-36.854;174.870;2022-08-21T13:05:34;1.80;;;1.80;;
19643;SDS011;9970;-36.854;174.870;2022-08-21T13:08:10;1.90;;;1.90;;
19643;SDS011;9970;-36.854;174.870;2022-08-21T13:10:44;1.80;;;1.80;;
19643;SDS011;9970;-36.854;174.870;2022-08-21T13:13:22;1.80;;;1.80;;
19643;SDS011;9970;-36.854;174.870;2022-08-21T13:16:03;1.90;;;1.90;;
19643;SDS011;9970;-36.854;174.870;2022-08-21T13:18:33;1.90;;;1.90;;
19643;SDS011;9970;-36.854;174.870;2022-08-21T13:21:13;1.90;;;1.90;;
19643;SDS011;9970;-36.854;174.870;2022-08-21T13:23:43;1.80;;;1.80;;
19643;SDS011;9970;-36.854;174.870;2022-08-21T13:26:20;1.80;;;1.80;;
19643;SDS011;9970;-36.854;174.870;2022-08-21T13:28:53;1.70;;;1.70;;
19643;SDS011;9970;-36.854;174.870;2022-08-21T13:31:27;1.90;;;1.90;;
19643;SDS011;9970;-36.854;174.870;2022-08-21T13:34:01;1.90;;;1.90;;
19643;SDS011;9970;-36.854;174.870;2022-08-21T13:36:35;1.90;;;1.90;;
19643;SDS011;9970;-36.854;174.870;2022-08-21T13:39:14;1.90;;;1.90;;
19643;SDS011;9970;-36.854;174.870;2022-08-21T13:41:48;1.77;;;1.77;;
19643;SDS011;9970;-36.854;174.870;2022-08-21T13:44:23;1.70;;;1.70;;
19643;SDS011;9970;-36.854;174.870;2022-08-21T13:47:04;1.80;;;1.80;;
19643;SDS011;9970;-36.854;174.870;2022-08-21T13:49:49;1.90;;;1.90;;
19643;SDS011;9970;-36.854;174.870;2022-08-21T13:52:25;1.90;;;1.90;;
19643;SDS011;9970;-36.854;174.870;2022-08-21T13:55:11;1.90;;;1.90;;
19643;SDS011;9970;-36.854;174.870;2022-08-21T13:57:34;1.80;;;1.80;;
19643;SDS011;9970;-36.854;174.870;2022-08-21T14:00:11;1.80;;;1.80;;
19643;SDS011;9970;-36.854;174.870;2022-08-21T14:02:46;1.80;;;1.80;;
19643;SDS011;9970;-36.854;174.870;2022-08-21T14:05:27;1.70;;;1.70;;
19643;SDS011;9970;-36.854;174.870;2022-08-21T14:10:42;1.80;;;1.80;;
19643;SDS011;9970;-36.854;174.870;2022-08-21T14:13:28;1.80;;;1.80;;
19643;SDS011;9970;-36.854;174.870;2022-08-21T14:16:02;1.80;;;1.80;;
19643;SDS011;9970;-36.854;174.870;2022-08-21T14:18:47;1.70;;;1.70;;
19643;SDS011;9970;-36.854;174.870;2022-08-21T14:21:30;1.60;;;1.60;;
19643;SDS011;9970;-36.854;174.870;2022-08-21T14:24:03;1.60;;;1.60;;
19643;SDS011;9970;-36.854;174.870;2022-08-21T14:26:49;1.60;;;1.60;;
19643;SDS011;9970;-36.854;174.870;2022-08-21T14:29:20;1.70;;;1.70;;
19643;SDS011;9970;-36.854;174.870;2022-08-21T14:31:57;1.63;;;1.63;;
19643;SDS011;9970;-36.854;174.870;2022-08-21T14:34:32;1.50;;;1.50;;
19643;SDS011;9970;-36.854;174.870;2022-08-21T14:37:05;1.70;;;1.70;;
19643;SDS011;9970;-36.854;174.870;2022-08-21T14:39:37;1.50;;;1.50;;
19643;SDS011;9970;-36.854;174.870;2022-08-21T14:42:12;1.70;;;1.70;;
19643;SDS011;9970;-36.854;174.870;2022-08-21T14:44:46;1.60;;;1.60;;
19643;SDS011;9970;-36.854;174.870;2022-08-21T14:47:18;1.60;;;1.60;;
19643;SDS011;9970;-36.854;174.870;2022-08-21T14:49:52;1.60;;;1.60;;
19643;SDS011;9970;-36.854;174.870;2022-08-21T14:52:24;1.60;;;1.60;;
19643;SDS011;9970;-36.854;174.870;2022-08-21T14:54:57;1.60;;;1.60;;
19643;SDS011;9970;-36.854;174.870;2022-08-21T14:57:30;1.60;;;1.60;;
19643;SDS011;9970;-36.854;174.870;2022-08-21T15:00:05;1.60;;;1.60;;
19643;SDS011;9970;-36.854;174.870;2022-08-21T15:02:40;1.50;;;1.50;;
19643;SDS011;9970;-36.854;174.870;2022-08-21T15:05:12;1.50;;;1.50;;
19643;SDS011;9970;-36.854;174.870;2022-08-21T15:07:47;1.50;;;1.50;;
19643;SDS011;9970;-36.854;174.870;2022-08-21T15:10:21;1.60;;;1.60;;
19643;SDS011;9970;-36.854;174.870;2022-08-21T15:12:54;1.50;;;1.50;;
19643;SDS011;9970;-36.854;174.870;2022-08-21T15:15:28;1.60;;;1.60;;
19643;SDS011;9970;-36.854;174.870;2022-08-21T15:18:03;1.60;;;1.60;;
19643;SDS011;9970;-36.854;174.870;2022-08-21T15:20:36;1.60;;;1.60;;
19643;SDS011;9970;-36.854;174.870;2022-08-21T15:23:09;1.70;;;1.70;;
19643;SDS011;9970;-36.854;174.870;2022-08-21T15:25:43;1.60;;;1.60;;
19643;SDS011;9970;-36.854;174.870;2022-08-21T15:28:21;1.80;;;1.80;;
19643;SDS011;9970;-36.854;174.870;2022-08-21T15:30:55;1.60;;;1.60;;
19643;SDS011;9970;-36.854;174.870;2022-08-21T15:33:30;1.60;;;1.60;;
19643;SDS011;9970;-36.854;174.870;2022-08-21T15:36:03;1.70;;;1.70;;
19643;SDS011;9970;-36.854;174.870;2022-08-21T15:38:40;1.70;;;1.70;;
19643;SDS011;9970;-36.854;174.870;2022-08-21T15:41:18;1.60;;;1.60;;
19643;SDS011;9970;-36.854;174.870;2022-08-21T15:43:51;1.70;;;1.70;;
19643;SDS011;9970;-36.854;174.870;2022-08-21T15:46:24;1.60;;;1.60;;
19643;SDS011;9970;-36.854;174.870;2022-08-21T15:49:01;1.60;;;1.60;;
19643;SDS011;9970;-36.854;174.870;2022-08-21T15:51:34;1.70;;;1.70;;
19643;SDS011;9970;-36.854;174.870;2022-08-21T15:54:08;1.70;;;1.70;;
19643;SDS011;9970;-36.854;174.870;2022-08-21T15:56:42;1.77;;;1.77;;
19643;SDS011;9970;-36.854;174.870;2022-08-21T15:59:17;1.70;;;1.70;;
19643;SDS011;9970;-36.854;174.870;2022-08-21T16:01:56;1.70;;;1.70;;
19643;SDS011;9970;-36.854;174.870;2022-08-21T16:04:30;1.60;;;1.60;;
19643;SDS011;9970;-36.854;174.870;2022-08-21T16:07:03;1.40;;;1.40;;
19643;SDS011;9970;-36.854;174.870;2022-08-21T16:09:37;1.70;;;1.70;;
19643;SDS011;9970;-36.854;174.870;2022-08-21T16:12:11;1.80;;;1.80;;
19643;SDS011;9970;-36.854;174.870;2022-08-21T16:14:46;1.63;;;1.63;;
19643;SDS011;9970;-36.854;174.870;2022-08-21T16:17:23;1.60;;;1.60;;
19643;SDS011;9970;-36.854;174.870;2022-08-21T16:19:56;1.60;;;1.60;;
19643;SDS011;9970;-36.854;174.870;2022-08-21T16:22:30;1.57;;;1.57;;
19643;SDS011;9970;-36.854;174.870;2022-08-21T16:25:09;1.60;;;1.60;;
19643;SDS011;9970;-36.854;174.870;2022-08-21T16:27:45;1.70;;;1.70;;